Time;durP1;ratioP1;P1;durP2;ratioP2;P2;SDS_P1;SDS_P2;PMS_P1;PMS_P2;Temp;Humidity;BMP_temperature;BMP_pressure;BME280_temperature;BME280_humidity;BME280_pressure;Samples;Min_cycle;Max_cycle;Signal;HPM_P1;HPM_P2
2023/10/03 00:00:38;;;;;;;28.98;11.93;;;;;;;17.80;92.89;100963.47;4964690;28;20050;-70
2023/10/03 00:03:09;;;;;;;24.48;11.20;;;;;;;17.83;92.15;100963.31;4964979;28;20043;-70
2023/10/03 00:05:38;;;;;;;28.20;11.50;;;;;;;17.88;92.61;100955.03;4970668;28;20511;-70
2023/10/03 00:08:05;;;;;;;25.67;11.57;;;;;;;17.91;92.26;100950.38;4969519;28;20545;-75
2023/10/03 00:10:33;;;;;;;25.67;11.32;;;;;;;17.94;91.81;100943.97;4970983;28;20054;-73
2023/10/03 00:13:01;;;;;;;27.75;11.73;;;;;;;17.95;92.00;100941.25;4965283;28;20042;-73
2023/10/03 00:15:28;;;;;;;28.52;12.60;;;;;;;17.98;91.30;100929.56;4964980;28;20074;-73
2023/10/03 00:17:55;;;;;;;25.50;11.60;;;;;;;18.00;91.32;100923.16;4966931;28;20038;-73
2023/10/03 00:20:23;;;;;;;28.13;11.57;;;;;;;18.03;91.35;100926.63;4968257;28;20121;-73
2023/10/03 00:22:51;;;;;;;28.25;11.95;;;;;;;18.06;91.08;100918.44;4966616;28;20034;-73
2023/10/03 00:25:24;;;;;;;28.63;13.07;;;;;;;18.06;90.91;100921.09;4965009;28;20057;-73
2023/10/03 00:27:54;;;;;;;27.60;12.18;;;;;;;18.07;90.81;100913.00;4966738;28;20046;-73
2023/10/03 00:30:24;;;;;;;27.50;12.02;;;;;;;18.10;90.71;100903.94;4977167;28;20042;-74
2023/10/03 00:32:52;;;;;;;28.17;12.32;;;;;;;18.12;90.76;100900.22;4964904;28;20039;-74
2023/10/03 00:35:21;;;;;;;26.95;11.95;;;;;;;18.15;90.52;100899.19;4967258;28;20058;-74
2023/10/03 00:37:52;;;;;;;25.13;12.00;;;;;;;18.17;90.30;100899.94;4967603;28;20050;-75
2023/10/03 00:42:59;;;;;;;31.80;13.05;;;;;;;18.18;89.57;100901.66;4966449;28;20047;-73
2023/10/03 00:45:31;;;;;;;30.25;12.88;;;;;;;18.18;89.67;100896.31;4964701;28;20039;-73
2023/10/03 00:48:07;;;;;;;29.98;12.52;;;;;;;18.19;89.60;100900.72;4982021;28;20059;-74
2023/10/03 00:50:37;;;;;;;26.73;11.73;;;;;;;18.15;89.82;100896.53;4967291;28;20507;-73
2023/10/03 00:53:10;;;;;;;27.33;12.80;;;;;;;18.15;89.49;100888.53;4966697;28;20105;-74
2023/10/03 00:55:43;;;;;;;29.10;12.40;;;;;;;18.10;89.11;100880.81;4969056;28;20054;-73
2023/10/03 01:00:43;;;;;;;29.63;12.40;;;;;;;18.02;89.18;100869.72;4967902;28;20046;-74
2023/10/03 01:03:32;;;;;;;28.63;12.43;;;;;;;17.99;89.43;100862.78;4969197;28;20384;-73
2023/10/03 01:06:10;;;;;;;30.75;13.13;;;;;;;17.96;89.44;100846.97;4967126;28;20565;-74
2023/10/03 01:08:48;;;;;;;29.40;12.52;;;;;;;17.94;89.55;100839.97;4968762;28;20153;-74
2023/10/03 01:11:18;;;;;;;33.00;12.73;;;;;;;17.94;89.80;100834.63;4969165;28;20050;-73
2023/10/03 01:13:59;;;;;;;28.65;13.02;;;;;;;17.89;89.83;100829.59;4968812;28;20494;-73
2023/10/03 01:16:34;;;;;;;28.50;12.52;;;;;;;17.90;89.98;100825.97;4962373;28;20066;-72
2023/10/03 01:19:13;;;;;;;33.65;13.35;;;;;;;17.91;90.33;100810.81;4968554;28;20046;-72
2023/10/03 01:21:41;;;;;;;29.85;13.23;;;;;;;17.90;89.90;100799.31;4968323;28;20782;-72
2023/10/03 01:24:11;;;;;;;30.45;12.93;;;;;;;17.89;89.93;100800.25;4956343;28;20051;-75
2023/10/03 01:26:39;;;;;;;27.92;12.88;;;;;;;17.91;90.03;100792.16;4970099;28;20042;-75
2023/10/03 01:29:07;;;;;;;31.58;13.25;;;;;;;17.89;89.65;100784.25;4964424;28;20455;-75
2023/10/03 01:31:34;;;;;;;27.45;12.93;;;;;;;17.88;90.10;100787.88;4966801;28;20066;-75
2023/10/03 01:34:02;;;;;;;28.08;12.70;;;;;;;17.87;90.04;100772.81;4967296;28;20039;-74
2023/10/03 01:36:29;;;;;;;29.08;13.38;;;;;;;17.86;90.04;100763.09;4963762;28;20110;-75
2023/10/03 01:38:57;;;;;;;31.13;13.13;;;;;;;17.87;90.00;100761.31;4964731;28;20065;-74
2023/10/03 01:41:24;;;;;;;29.25;13.43;;;;;;;17.85;90.09;100762.25;4963073;28;20471;-74
2023/10/03 01:43:51;;;;;;;29.92;13.63;;;;;;;17.85;90.17;100754.28;4965834;28;20051;-74
2023/10/03 01:46:18;;;;;;;33.92;13.82;;;;;;;17.85;90.19;100748.09;4962940;28;20050;-74
2023/10/03 01:48:45;;;;;;;28.73;13.68;;;;;;;17.85;89.98;100748.94;4974610;28;20469;-74
2023/10/03 01:51:13;;;;;;;29.70;12.90;;;;;;;17.87;90.12;100739.97;4962935;28;20101;-74
2023/10/03 01:53:40;;;;;;;28.13;12.85;;;;;;;17.86;90.42;100739.13;4959505;28;20042;-74
2023/10/03 01:56:09;;;;;;;31.88;13.60;;;;;;;17.89;90.58;100735.41;4961345;28;20042;-74
2023/10/03 01:58:37;;;;;;;28.55;13.23;;;;;;;17.89;90.50;100736.25;4967753;28;20058;-74
2023/10/03 02:01:04;;;;;;;28.45;12.85;;;;;;;17.90;90.40;100743.31;4964681;28;20157;-74
2023/10/03 02:03:32;;;;;;;30.63;13.40;;;;;;;17.88;90.37;100731.03;4965411;28;20042;-74
2023/10/03 02:06:02;;;;;;;29.80;13.38;;;;;;;17.88;90.21;100731.88;4967984;28;20043;-74
2023/10/03 02:08:29;;;;;;;32.55;13.93;;;;;;;17.88;90.14;100723.03;4966833;28;20086;-74
2023/10/03 02:10:57;;;;;;;27.85;12.73;;;;;;;17.85;90.32;100716.09;4968595;28;20109;-75
2023/10/03 02:13:24;;;;;;;29.63;13.52;;;;;;;17.83;90.47;100710.84;4965610;28;20043;-72
2023/10/03 02:15:54;;;;;;;29.95;13.32;;;;;;;17.80;90.55;100716.38;4969616;28;20566;-72
2023/10/03 02:18:22;;;;;;;29.40;13.60;;;;;;;17.78;90.40;100722.75;4966292;28;20054;-71
2023/10/03 02:20:54;;;;;;;29.48;13.27;;;;;;;17.77;90.61;100735.22;4967976;28;20038;-72
2023/10/03 02:23:25;;;;;;;30.15;13.18;;;;;;;17.77;90.88;100705.91;4968196;28;20082;-72
2023/10/03 02:25:55;;;;;;;29.40;14.07;;;;;;;17.78;91.18;100722.75;4961701;28;20046;-72
2023/10/03 02:28:26;;;;;;;32.33;14.23;;;;;;;17.74;91.35;100711.41;4967569;28;20042;-73
2023/10/03 02:30:57;;;;;;;28.38;13.48;;;;;;;17.73;91.29;100701.72;4965758;28;20101;-73
2023/10/03 02:33:24;;;;;;;32.88;13.88;;;;;;;17.72;91.65;100705.31;4967579;28;20059;-73
2023/10/03 02:35:52;;;;;;;29.00;13.43;;;;;;;17.72;91.54;100694.66;4967002;28;20034;-73
2023/10/03 02:38:29;;;;;;;29.83;13.70;;;;;;;17.72;91.30;100697.31;4967218;28;20054;-73
2023/10/03 02:40:59;;;;;;;31.10;14.30;;;;;;;17.76;91.53;100700.66;4981580;28;20058;-72
2023/10/03 02:43:34;;;;;;;29.27;12.93;;;;;;;17.80;91.57;100694.19;4965649;28;20122;-73
2023/10/03 02:46:07;;;;;;;28.25;12.95;;;;;;;17.83;91.71;100686.84;4962310;28;20089;-75
2023/10/03 02:48:35;;;;;;;32.00;12.57;;;;;;;17.86;91.48;100680.44;4963115;28;20049;-75
2023/10/03 02:51:05;;;;;;;28.75;12.82;;;;;;;17.90;91.41;100687.31;4964621;28;20050;-75
2023/10/03 02:53:33;;;;;;;27.42;13.05;;;;;;;17.95;91.49;100676.34;4966310;28;20054;-74
2023/10/03 02:56:00;;;;;;;29.08;12.57;;;;;;;17.99;91.21;100686.75;4965993;28;20680;-74
2023/10/03 02:58:27;;;;;;;28.77;12.15;;;;;;;18.03;91.46;100690.06;4961685;28;20424;-74
2023/10/03 03:00:55;;;;;;;28.27;13.23;;;;;;;18.07;90.88;100694.28;4967048;28;20415;-73
2023/10/03 03:03:30;;;;;;;28.13;13.13;;;;;;;18.10;90.51;100682.53;4961926;28;20051;-73
2023/10/03 03:06:02;;;;;;;26.58;12.25;;;;;;;18.16;91.00;100695.50;4966230;28;20038;-73
2023/10/03 03:08:29;;;;;;;26.67;12.10;;;;;;;18.26;90.72;100695.75;4962527;28;20364;-73
2023/10/03 03:10:59;;;;;;;24.17;12.02;;;;;;;18.36;90.34;100702.19;4994662;28;20043;-74
2023/10/03 03:13:33;;;;;;;24.88;11.70;;;;;;;18.47;90.05;100702.34;4962373;28;20126;-74
2023/10/03 03:16:03;;;;;;;26.85;11.80;;;;;;;18.58;89.48;100717.63;4954458;28;20035;-74
2023/10/03 03:18:41;;;;;;;27.35;12.00;;;;;;;18.70;89.08;100717.78;4963031;28;20510;-76
2023/10/03 03:21:14;;;;;;;30.25;11.73;;;;;;;18.75;88.84;100710.34;4964117;28;20129;-76
2023/10/03 03:23:56;;;;;;;28.90;11.93;;;;;;;18.80;88.53;100704.69;4966726;28;20055;-76
2023/10/03 03:26:36;;;;;;;28.65;12.05;;;;;;;18.84;87.86;100709.72;4966120;28;20057;-76
2023/10/03 03:29:19;;;;;;;31.00;11.65;;;;;;;18.88;88.30;100716.56;4962343;28;20129;-75
2023/10/03 03:31:48;;;;;;;28.05;12.07;;;;;;;18.96;87.34;100720.56;4970370;28;20436;-76
2023/10/03 03:34:16;;;;;;;30.45;12.23;;;;;;;18.98;87.12;100707.94;4970627;28;20051;-75
2023/10/03 03:36:46;;;;;;;27.83;11.52;;;;;;;18.99;87.13;100715.00;4971344;28;20113;-76
2023/10/03 03:39:20;;;;;;;26.25;11.57;;;;;;;19.01;87.15;100715.75;4962834;28;20182;-74
2023/10/03 03:41:48;;;;;;;27.20;11.03;;;;;;;19.02;86.83;100706.78;4966099;28;20171;-75
2023/10/03 03:44:18;;;;;;;24.20;10.43;;;;;;;19.05;nan;100696.75;4985393;28;20300;-76
2023/10/03 03:46:46;;;;;;;25.92;10.95;;;;;;;19.10;86.90;100696.44;4970570;28;20094;-75
2023/10/03 03:49:13;;;;;;;26.17;10.57;;;;;;;19.13;86.74;100698.91;4969948;28;20038;-76
2023/10/03 03:51:40;;;;;;;22.52;9.93;;;;;;;19.19;86.44;100694.94;4966578;28;20043;-75
2023/10/03 03:54:12;;;;;;;27.83;10.05;;;;;;;19.27;86.70;100699.78;4983597;28;20059;-75
2023/10/03 03:56:40;;;;;;;22.58;9.57;;;;;;;19.30;86.51;100689.72;4951422;28;20396;-75
2023/10/03 03:59:09;;;;;;;21.63;9.70;;;;;;;19.35;86.36;100692.91;4965603;28;20059;-75
2023/10/03 04:01:37;;;;;;;22.83;9.57;;;;;;;19.37;85.92;100690.16;4969586;28;20049;-75
2023/10/03 04:04:07;;;;;;;22.20;9.65;;;;;;;19.39;86.35;100691.75;4969625;28;20121;-74
2023/10/03 04:06:34;;;;;;;21.65;10.00;;;;;;;19.38;85.92;100695.38;4965103;28;20050;-75
2023/10/03 04:09:02;;;;;;;22.33;9.73;;;;;;;19.38;86.30;100692.72;4969927;28;20047;-74
2023/10/03 04:11:36;;;;;;;22.33;10.50;;;;;;;19.38;85.99;100697.22;4968659;28;20399;-74
2023/10/03 04:14:05;;;;;;;23.52;9.63;;;;;;;19.40;85.92;100692.59;4969267;28;20071;-75
2023/10/03 04:16:43;;;;;;;26.80;10.13;;;;;;;19.43;85.45;100703.09;4967060;28;20054;-75
2023/10/03 04:19:10;;;;;;;27.20;9.15;;;;;;;19.45;85.28;100692.28;4966897;28;20042;-74
2023/10/03 04:21:40;;;;;;;26.02;10.63;;;;;;;19.50;85.28;100708.84;4968236;28;20170;-75
2023/10/03 04:24:11;;;;;;;25.17;9.90;;;;;;;19.50;85.49;100704.34;4962990;28;20041;-75
2023/10/03 04:26:42;;;;;;;20.35;8.98;;;;;;;19.51;85.20;100715.91;4969224;28;20608;-74
2023/10/03 04:29:13;;;;;;;18.20;8.90;;;;;;;19.55;85.39;100720.94;4967798;28;20070;-73
2023/10/03 04:31:43;;;;;;;21.20;8.75;;;;;;;19.59;85.01;100720.69;4966953;28;20118;-73
2023/10/03 04:34:11;;;;;;;20.77;8.45;;;;;;;19.63;85.06;100719.53;4963093;28;20043;-72
2023/10/03 04:36:41;;;;;;;20.23;8.30;;;;;;;19.64;85.37;100711.41;4959272;28;20043;-73
2023/10/03 04:39:10;;;;;;;22.40;8.20;;;;;;;19.66;84.96;100708.63;4962576;28;20053;-73
2023/10/03 04:41:43;;;;;;;22.20;8.20;;;;;;;19.69;84.93;100719.97;4951627;28;20039;-73
2023/10/03 04:44:14;;;;;;;21.90;7.57;;;;;;;19.72;85.26;100724.22;4962122;28;20051;-74
2023/10/03 04:46:44;;;;;;;19.73;7.72;;;;;;;19.76;84.50;100728.41;4970027;28;20054;-73
2023/10/03 04:49:12;;;;;;;19.17;7.97;;;;;;;19.78;84.40;100734.50;4967641;28;20043;-73
2023/10/03 04:51:40;;;;;;;15.40;7.47;;;;;;;19.79;84.16;100720.16;4969552;28;20046;-74
2023/10/03 04:54:07;;;;;;;14.63;7.30;;;;;;;19.79;84.21;100725.50;4955499;28;20594;-72
2023/10/03 04:56:34;;;;;;;18.17;7.07;;;;;;;19.81;84.23;100731.59;4969256;28;20046;-73
2023/10/03 04:59:02;;;;;;;12.65;6.57;;;;;;;19.83;84.22;100737.69;4969165;28;20116;-73
2023/10/03 05:01:30;;;;;;;15.95;6.88;;;;;;;19.83;84.26;100743.03;4961591;28;20047;-73
2023/10/03 05:03:57;;;;;;;16.15;7.65;;;;;;;19.81;84.14;100739.63;4963288;28;20137;-73
2023/10/03 05:06:25;;;;;;;17.40;6.88;;;;;;;19.81;84.18;100728.91;4964486;28;20106;-73
2023/10/03 05:08:52;;;;;;;15.07;7.07;;;;;;;19.79;84.68;100740.69;4964291;28;20046;-73
2023/10/03 05:11:20;;;;;;;16.00;6.53;;;;;;;19.79;84.92;100757.59;4985144;28;20618;-71
2023/10/03 05:13:48;;;;;;;17.25;6.93;;;;;;;19.79;84.50;100756.75;4959530;28;20039;-74
2023/10/03 05:16:15;;;;;;;19.20;6.78;;;;;;;19.79;84.42;100770.97;4966746;28;20102;-73
2023/10/03 05:18:42;;;;;;;26.90;6.55;;;;;;;19.79;84.20;100751.41;4964329;28;20050;-73
2023/10/03 05:21:10;;;;;;;12.82;5.75;;;;;;;19.78;83.66;100753.22;4966645;28;20125;-73
2023/10/03 05:23:37;;;;;;;16.83;6.38;;;;;;;19.78;84.04;100771.94;4968101;28;20050;-74
2023/10/03 05:26:04;;;;;;;14.60;6.03;;;;;;;19.76;83.95;100781.91;4961001;28;20058;-73
2023/10/03 05:28:38;;;;;;;14.15;5.40;;;;;;;19.75;83.84;100788.22;4962661;28;20050;-73
2023/10/03 05:31:12;;;;;;;17.90;5.50;;;;;;;19.75;82.64;100795.34;4958659;28;20043;-73
2023/10/03 05:33:42;;;;;;;16.15;5.57;;;;;;;19.73;83.10;100816.03;4963998;28;20524;-74
2023/10/03 05:36:22;;;;;;;24.48;5.15;;;;;;;19.70;82.08;100825.97;4961653;28;20453;-74
2023/10/03 05:38:49;;;;;;;16.10;4.97;;;;;;;19.65;81.80;100820.06;4962009;28;20054;-75
2023/10/03 05:41:23;;;;;;;20.95;5.20;;;;;;;19.60;81.71;100819.53;4963167;28;20047;-75
2023/10/03 05:43:52;;;;;;;12.38;4.30;;;;;;;19.54;81.45;100810.13;4962033;28;20051;-75
2023/10/03 05:46:19;;;;;;;13.35;4.93;;;;;;;19.48;81.52;100818.56;4952426;28;20050;-75
2023/10/03 05:48:46;;;;;;;11.82;4.22;;;;;;;19.44;82.29;100800.16;4966233;28;20125;-75
2023/10/03 05:51:14;;;;;;;12.10;4.57;;;;;;;19.38;81.78;100818.34;4960957;28;20035;-75
2023/10/03 05:53:41;;;;;;;14.07;4.60;;;;;;;19.35;81.80;100813.19;4963327;28;20050;-75
2023/10/03 05:56:12;;;;;;;18.33;5.55;;;;;;;19.29;81.76;100807.41;4960088;28;20047;-75
2023/10/03 05:58:40;;;;;;;16.05;4.68;;;;;;;19.24;82.00;100810.38;4952470;28;20081;-76
2023/10/03 06:01:07;;;;;;;11.05;4.70;;;;;;;19.22;81.70;100818.50;4964157;28;20096;-76
2023/10/03 06:03:36;;;;;;;12.18;4.13;;;;;;;19.21;81.81;100823.97;4956230;28;20480;-76
2023/10/03 06:06:03;;;;;;;12.35;4.30;;;;;;;19.20;81.89;100822.25;4963698;28;20074;-74
2023/10/03 06:08:32;;;;;;;9.10;4.40;;;;;;;19.19;82.09;100817.88;4954513;28;20050;-75
2023/10/03 06:11:03;;;;;;;7.35;4.43;;;;;;;19.19;82.38;100824.06;4966076;28;20046;-75
2023/10/03 06:13:30;;;;;;;12.32;4.65;;;;;;;19.19;82.54;100821.38;4973232;28;20507;-75
2023/10/03 06:15:59;;;;;;;8.95;4.55;;;;;;;19.22;82.12;100820.34;4967174;28;20133;-75
2023/10/03 06:18:29;;;;;;;10.95;4.80;;;;;;;19.22;82.18;100818.50;4965231;28;20566;-75
2023/10/03 06:20:57;;;;;;;9.95;4.78;;;;;;;19.22;81.86;100823.84;4955949;28;20074;-75
2023/10/03 06:23:25;;;;;;;10.98;4.82;;;;;;;19.21;82.19;100818.63;4967772;28;20054;-75
2023/10/03 06:25:52;;;;;;;17.65;4.55;;;;;;;19.20;82.45;100824.94;4967753;28;20046;-76
2023/10/03 06:28:21;;;;;;;15.45;4.78;;;;;;;19.19;82.41;100837.41;4965324;28;20038;-75
2023/10/03 06:30:51;;;;;;;12.68;4.80;;;;;;;19.19;82.62;100823.22;4968523;28;20054;-75
2023/10/03 06:33:18;;;;;;;10.50;4.68;;;;;;;19.17;82.69;100834.00;4964607;28;20412;-74
2023/10/03 06:35:45;;;;;;;19.80;5.13;;;;;;;19.20;82.46;100835.63;4964483;28;20275;-74
2023/10/03 06:38:15;;;;;;;12.98;4.95;;;;;;;19.21;82.88;100856.03;4963976;28;20223;-74
2023/10/03 06:40:42;;;;;;;12.60;4.78;;;;;;;19.22;83.01;100863.94;4966345;28;20058;-75
2023/10/03 06:43:09;;;;;;;17.80;4.80;;;;;;;19.20;82.95;100855.16;4976463;28;20577;-75
2023/10/03 06:45:37;;;;;;;15.23;4.63;;;;;;;19.21;82.78;100862.22;4965217;28;20074;-75
2023/10/03 06:48:05;;;;;;;15.63;4.70;;;;;;;19.24;82.74;100874.50;4965798;28;20058;-74
2023/10/03 06:50:33;;;;;;;11.98;4.57;;;;;;;19.22;82.76;100866.59;4963368;28;20049;-75
2023/10/03 06:53:01;;;;;;;13.27;5.13;;;;;;;19.20;83.01;100857.00;4965866;28;20035;-75
2023/10/03 06:55:28;;;;;;;11.45;4.03;;;;;;;19.18;83.03;100867.75;4965725;28;20042;-75
2023/10/03 06:57:55;;;;;;;14.65;5.32;;;;;;;19.21;82.90;100878.25;4967218;28;20078;-74
2023/10/03 07:00:22;;;;;;;23.20;5.63;;;;;;;19.24;83.21;100879.84;4965029;28;20054;-74
2023/10/03 07:02:49;;;;;;;11.48;4.63;;;;;;;19.24;82.87;100888.75;4966566;28;20050;-75
2023/10/03 07:05:16;;;;;;;19.85;5.05;;;;;;;19.26;83.03;100888.63;4964734;28;20507;-75
2023/10/03 07:07:43;;;;;;;12.35;4.97;;;;;;;19.24;83.20;100893.22;4966914;28;20043;-74
2023/10/03 07:10:11;;;;;;;23.83;4.88;;;;;;;19.22;83.22;100906.69;4965987;28;20213;-75
2023/10/03 07:12:38;;;;;;;11.68;4.55;;;;;;;19.23;83.13;100907.53;4977304;28;20042;-75
2023/10/03 07:15:08;;;;;;;21.15;5.22;;;;;;;19.20;83.32;100905.09;4967074;28;20097;-75
2023/10/03 07:17:35;;;;;;;13.50;4.78;;;;;;;19.18;83.46;100921.19;4967277;28;20486;-74
2023/10/03 07:20:07;;;;;;;19.90;4.85;;;;;;;19.15;83.89;100920.56;4964448;28;20134;-74
2023/10/03 07:22:35;;;;;;;8.60;4.60;;;;;;;19.07;84.53;100913.06;4966094;28;20178;-75
2023/10/03 07:25:08;;;;;;;7.93;4.28;;;;;;;19.00;85.06;100909.03;4947996;28;20047;-75
2023/10/03 07:27:41;;;;;;;9.07;4.47;;;;;;;18.91;85.99;100915.81;4948535;28;20497;-74
2023/10/03 07:30:10;;;;;;;10.93;5.43;;;;;;;18.81;86.59;100920.88;4980022;28;20046;-75
2023/10/03 07:32:37;;;;;;;13.40;5.20;;;;;;;18.73;88.41;100916.03;4986243;28;20042;-75
2023/10/03 07:35:10;;;;;;;10.20;5.53;;;;;;;18.62;88.31;100902.50;4985405;28;20050;-74
2023/10/03 07:37:39;;;;;;;11.63;5.97;;;;;;;18.61;88.77;100916.81;4975118;28;20043;-74
2023/10/03 07:40:07;;;;;;;10.77;5.30;;;;;;;18.59;89.56;100900.03;4966347;28;20141;-74
2023/10/03 07:42:34;;;;;;;9.30;5.97;;;;;;;18.56;89.57;100902.91;4968760;28;20049;-74
2023/10/03 07:45:02;;;;;;;12.75;6.45;;;;;;;18.49;89.30;100906.91;4965325;28;20587;-75
2023/10/03 07:47:29;;;;;;;9.43;6.03;;;;;;;18.42;90.40;100911.78;4965299;28;20042;-74
2023/10/03 07:50:00;;;;;;;12.85;6.47;;;;;;;18.40;90.92;100908.34;4965938;28;20039;-74
2023/10/03 07:52:27;;;;;;;11.88;5.32;;;;;;;18.42;90.97;100906.44;4964505;28;20046;-74
2023/10/03 07:54:56;;;;;;;10.95;5.80;;;;;;;18.44;91.72;100916.06;4964064;28;20371;-74
2023/10/03 07:57:25;;;;;;;14.45;6.47;;;;;;;18.53;91.60;100919.97;4962001;28;20047;-73
2023/10/03 07:59:52;;;;;;;11.80;5.65;;;;;;;18.59;91.59;100924.06;4962624;28;20562;-74
2023/10/03 08:02:26;;;;;;;13.13;6.25;;;;;;;18.66;91.32;100937.91;4966961;28;20171;-73
2023/10/03 08:04:58;;;;;;;8.10;5.63;;;;;;;18.71;90.96;100942.00;4963973;28;20051;-76
2023/10/03 08:07:27;;;;;;;10.77;5.53;;;;;;;18.75;90.87;100954.19;4965644;28;20057;-73
2023/10/03 08:09:55;;;;;;;11.60;5.63;;;;;;;18.78;90.50;100961.13;4965939;28;20050;-74
2023/10/03 08:12:25;;;;;;;10.10;5.70;;;;;;;18.81;89.89;100971.63;4971074;28;20140;-74
2023/10/03 08:14:53;;;;;;;12.50;5.60;;;;;;;18.83;89.95;100971.53;4966039;28;20051;-74
2023/10/03 08:17:26;;;;;;;9.40;5.25;;;;;;;18.84;89.77;100963.44;4960106;28;20038;-74
2023/10/03 08:19:53;;;;;;;11.10;5.80;;;;;;;18.84;89.58;100971.44;4967862;28;20513;-74
2023/10/03 08:22:20;;;;;;;10.40;5.43;;;;;;;18.84;89.44;100973.25;4967624;28;20043;-75
2023/10/03 08:24:48;;;;;;;10.30;5.60;;;;;;;18.85;90.00;100981.19;4969500;28;20047;-75
2023/10/03 08:27:18;;;;;;;9.45;4.80;;;;;;;18.84;90.37;100987.47;4966506;28;20165;-74
2023/10/03 08:29:51;;;;;;;11.05;5.35;;;;;;;18.84;89.68;100991.94;4968893;28;20055;-75
2023/10/03 08:32:19;;;;;;;8.35;5.55;;;;;;;18.84;89.71;100998.16;4969342;28;20043;-75
2023/10/03 08:34:46;;;;;;;9.95;5.32;;;;;;;18.87;89.99;100981.06;4967345;28;20038;-75
2023/10/03 08:37:21;;;;;;;12.05;5.40;;;;;;;18.88;90.11;100996.97;4968387;28;20051;-75
2023/10/03 08:39:51;;;;;;;11.10;4.85;;;;;;;18.89;89.84;101009.38;4968046;28;20378;-75
2023/10/03 08:42:34;;;;;;;12.77;5.80;;;;;;;18.89;90.25;101017.41;4967801;28;20034;-74
2023/10/03 08:45:16;;;;;;;10.68;5.30;;;;;;;18.97;90.05;101011.63;4968288;28;20047;-75
2023/10/03 08:47:51;;;;;;;18.77;5.43;;;;;;;19.01;89.24;101021.16;4968623;28;20350;-75
2023/10/03 08:50:34;;;;;;;12.13;5.45;;;;;;;19.01;89.36;101036.31;4966398;28;20043;-75
2023/10/03 08:53:12;;;;;;;11.13;5.07;;;;;;;19.06;88.34;101034.22;4967130;28;20134;-75
2023/10/03 08:55:43;;;;;;;9.68;5.22;;;;;;;19.13;87.95;101029.38;4968968;28;20434;-75
2023/10/03 08:58:15;;;;;;;14.07;5.35;;;;;;;19.20;87.87;101039.53;4966982;28;20043;-75
2023/10/03 09:00:49;;;;;;;11.13;5.63;;;;;;;19.33;87.67;101038.75;4962831;28;20086;-75
2023/10/03 09:03:18;;;;;;;12.23;5.85;;;;;;;19.44;86.82;101048.75;4951535;28;20125;-75
2023/10/03 09:05:47;;;;;;;13.77;5.75;;;;;;;19.49;86.74;101050.16;4969122;28;20055;-75
2023/10/03 09:08:16;;;;;;;11.88;5.80;;;;;;;19.57;86.39;101047.00;4969021;28;20411;-75
2023/10/03 09:10:53;;;;;;;8.68;4.15;;;;;;;19.69;85.13;101037.31;4967914;28;20051;-75
2023/10/03 09:13:28;;;;;;;5.05;3.00;;;;;;;19.74;82.54;101051.25;4953803;28;20046;-75
2023/10/03 09:16:00;;;;;;;8.52;2.60;;;;;;;19.72;80.57;101055.84;4969357;28;20488;-75
2023/10/03 09:18:43;;;;;;;19.02;2.67;;;;;;;19.78;80.39;101050.09;4961543;28;20054;-75
2023/10/03 09:21:23;;;;;;;7.32;2.13;;;;;;;19.79;80.46;101051.78;4966738;28;20404;-74
2023/10/03 09:24:14;;;;;;;8.80;1.52;;;;;;;19.75;77.90;101076.16;4970336;28;20100;-76
2023/10/03 09:27:07;;;;;;;7.13;1.20;;;;;;;19.54;79.11;101081.94;4968805;28;20456;-75
2023/10/03 09:29:34;;;;;;;5.40;0.82;;;;;;;19.14;80.02;101129.91;4966582;28;20051;-75
2023/10/03 09:32:16;;;;;;;2.28;0.98;;;;;;;18.75;82.58;101122.41;4968896;28;20073;-74
2023/10/03 09:34:48;;;;;;;2.95;0.93;;;;;;;18.30;85.58;101135.72;4967729;28;20039;-74
2023/10/03 09:37:17;;;;;;;5.10;1.13;;;;;;;17.88;87.59;101139.88;4948419;28;20484;-75
2023/10/03 09:39:48;;;;;;;8.40;1.38;;;;;;;17.65;89.77;101147.34;4949177;28;20158;-75
2023/10/03 09:42:23;;;;;;;4.20;1.20;;;;;;;17.57;91.44;101143.41;4972461;28;20070;-76
2023/10/03 09:44:57;;;;;;;7.75;1.23;;;;;;;17.59;91.97;101147.69;4983102;28;20038;-75
2023/10/03 09:47:35;;;;;;;3.28;0.90;;;;;;;17.65;92.19;101160.69;4968108;28;20054;-74
2023/10/03 09:50:09;;;;;;;5.10;1.10;;;;;;;17.65;92.40;101166.00;4966634;28;20404;-77
2023/10/03 09:52:38;;;;;;;4.30;1.13;;;;;;;17.68;92.33;101181.84;4966102;28;20045;-74
2023/10/03 09:55:26;;;;;;;4.03;1.05;;;;;;;17.78;92.07;101181.34;4968978;28;20059;-75
2023/10/03 09:57:59;;;;;;;3.20;0.80;;;;;;;17.82;90.81;101167.75;4955150;28;20355;-75
2023/10/03 10:00:50;;;;;;;4.93;1.47;;;;;;;17.83;91.50;101174.81;4968095;28;20039;-75
2023/10/03 10:03:26;;;;;;;5.15;1.13;;;;;;;17.78;90.50;101158.22;4966848;28;20553;-75
2023/10/03 10:06:12;;;;;;;3.75;1.00;;;;;;;17.81;90.81;101168.69;4968109;28;20046;-75
2023/10/03 10:08:58;;;;;;;3.13;1.17;;;;;;;17.85;91.23;101180.06;4967650;28;20134;-75
2023/10/03 10:11:30;;;;;;;4.22;1.27;;;;;;;17.91;90.88;101173.50;4966999;28;20133;-75
2023/10/03 10:14:10;;;;;;;4.85;1.30;;;;;;;17.96;90.07;101185.66;4968564;28;20582;-75
2023/10/03 10:17:04;;;;;;;3.83;1.00;;;;;;;18.04;89.57;101187.91;4966187;28;20049;-75
2023/10/03 10:20:09;;;;;;;3.72;1.00;;;;;;;18.13;89.04;101192.72;4971597;28;20055;-75
2023/10/03 10:23:01;;;;;;;5.95;0.93;;;;;;;18.10;87.15;101202.72;4965069;28;20047;-74
2023/10/03 10:25:33;;;;;;;5.18;0.98;;;;;;;17.96;86.60;101188.34;4969182;28;20081;-75
2023/10/03 10:28:11;;;;;;;3.72;1.10;;;;;;;17.85;87.53;101198.75;4987331;28;20053;-75
2023/10/03 10:31:21;;;;;;;5.30;1.00;;;;;;;17.61;89.48;101225.78;4975384;28;20039;-75
2023/10/03 10:34:10;;;;;;;2.67;0.75;;;;;;;17.29;91.42;101251.50;4950272;28;20078;-75
2023/10/03 10:37:01;;;;;;;3.67;0.90;;;;;;;17.04;93.43;101258.91;4962735;28;20110;-75
2023/10/03 10:39:55;;;;;;;4.22;0.80;;;;;;;16.87;94.94;101261.53;4967118;28;20063;-77
2023/10/03 10:42:26;;;;;;;4.65;0.82;;;;;;;16.75;94.53;101263.88;4963189;28;20146;-74
2023/10/03 10:45:03;;;;;;;3.50;0.85;;;;;;;16.67;94.46;101271.38;4964128;28;20293;-74
2023/10/03 10:47:35;;;;;;;3.17;0.70;;;;;;;16.65;95.39;101273.25;4960428;28;20594;-74
2023/10/03 10:50:06;;;;;;;1.33;0.57;;;;;;;16.69;95.32;101263.31;4966274;28;20089;-75
2023/10/03 10:53:05;;;;;;;2.42;0.50;;;;;;;16.74;94.25;101278.13;4964352;28;20685;-76
2023/10/03 10:55:33;;;;;;;2.30;0.60;;;;;;;16.76;94.52;101268.25;4966604;28;20065;-75
2023/10/03 10:58:12;;;;;;;2.08;0.47;;;;;;;16.87;94.65;101272.19;4965618;28;20042;-74
2023/10/03 11:00:40;;;;;;;3.33;0.60;;;;;;;16.97;93.06;101267.31;4965134;28;20445;-75
2023/10/03 11:03:08;;;;;;;4.80;0.70;;;;;;;17.04;92.19;101274.03;4966612;28;20072;-75
2023/10/03 11:05:51;;;;;;;2.20;0.60;;;;;;;17.07;91.69;101273.91;4962612;28;20130;-74
2023/10/03 11:08:18;;;;;;;4.78;0.63;;;;;;;17.14;91.66;101275.31;4965636;28;20051;-74
2023/10/03 11:10:52;;;;;;;4.13;0.68;;;;;;;17.26;90.68;101278.28;4967138;28;20049;-74
2023/10/03 11:13:21;;;;;;;2.35;0.52;;;;;;;17.30;91.00;101274.50;4966544;28;20656;-74
2023/10/03 11:15:53;;;;;;;4.25;0.80;;;;;;;17.35;89.31;101275.97;4986084;28;20042;-74
2023/10/03 11:18:30;;;;;;;4.35;0.70;;;;;;;17.39;89.14;101292.69;4966087;28;20524;-74
2023/10/03 11:20:59;;;;;;;1.65;0.68;;;;;;;17.32;88.38;101296.59;4966136;28;20046;-74
2023/10/03 11:23:27;;;;;;;2.22;0.52;;;;;;;17.23;88.67;101309.47;4965963;28;20047;-74
2023/10/03 11:25:59;;;;;;;3.10;0.70;;;;;;;17.07;90.19;101309.38;4966310;28;20047;-74
2023/10/03 11:28:28;;;;;;;3.75;0.80;;;;;;;16.91;92.35;101311.06;4984488;28;20070;-74
2023/10/03 11:31:01;;;;;;;2.22;0.60;;;;;;;16.75;93.13;101302.97;4975126;28;20046;-74
2023/10/03 11:33:51;;;;;;;4.00;0.82;;;;;;;16.55;94.25;101307.44;4966771;28;20043;-74
2023/10/03 11:36:18;;;;;;;2.00;0.50;;;;;;;16.47;94.71;101298.97;4968330;28;20423;-74
2023/10/03 11:38:47;;;;;;;1.85;0.55;;;;;;;16.49;95.78;101304.22;4964721;28;20530;-75
2023/10/03 11:41:40;;;;;;;3.45;0.70;;;;;;;16.55;95.47;101303.91;4965301;28;20500;-75